createdAt,value
2018-10-21T00:01:17.785Z,28.50
2018-10-21T00:04:11.249Z,28.50
2018-10-21T00:07:04.302Z,28.50
2018-10-21T00:09:57.671Z,28.50
2018-10-21T00:12:50.961Z,28.50
2018-10-21T00:15:44.205Z,28.40
2018-10-21T00:18:37.308Z,28.50
2018-10-21T00:21:32.364Z,28.40
2018-10-21T00:24:26.023Z,28.40
2018-10-21T00:27:19.290Z,28.40
2018-10-21T00:30:12.385Z,28.30
2018-10-21T00:33:05.513Z,28.30
2018-10-21T00:35:58.869Z,28.30
2018-10-21T00:38:52.359Z,28.30
2018-10-21T00:41:45.907Z,28.30
2018-10-21T00:44:40.458Z,28.20
2018-10-21T00:47:34.976Z,28.20
2018-10-21T00:50:30.247Z,28.20
2018-10-21T00:53:23.857Z,28.10
2018-10-21T00:56:16.945Z,28.10
2018-10-21T00:59:10.893Z,28.10
2018-10-21T01:02:04.268Z,28.00
2018-10-21T01:04:57.526Z,28.00
2018-10-21T01:07:50.794Z,28.00
2018-10-21T01:10:44.043Z,28.00
2018-10-21T01:13:37.009Z,27.90
2018-10-21T01:16:30.273Z,27.90
2018-10-21T01:19:23.416Z,27.90
2018-10-21T01:22:16.732Z,27.90
2018-10-21T01:25:14.195Z,27.90
2018-10-21T01:28:07.818Z,27.90
2018-10-21T01:31:04.351Z,27.80
2018-10-21T01:33:57.524Z,27.80
2018-10-21T01:36:50.844Z,27.90
2018-10-21T01:40:24.185Z,27.90
2018-10-21T01:43:45.922Z,27.90
2018-10-21T01:46:39.140Z,27.90
2018-10-21T01:49:32.645Z,27.90
2018-10-21T01:52:28.592Z,27.90
2018-10-21T01:55:21.734Z,27.90
2018-10-21T01:58:15.591Z,27.90
2018-10-21T02:01:08.972Z,27.90
2018-10-21T02:04:02.320Z,27.90
2018-10-21T02:06:55.596Z,27.90
2018-10-21T02:09:50.906Z,27.90
2018-10-21T02:12:44.343Z,27.90
2018-10-21T02:15:37.840Z,27.90
2018-10-21T02:18:30.704Z,27.90
2018-10-21T02:21:26.476Z,27.90
2018-10-21T02:24:17.217Z,27.90
2018-10-21T02:27:10.710Z,27.90
2018-10-21T02:30:06.715Z,27.90
2018-10-21T02:33:00.645Z,27.90
2018-10-21T02:35:53.849Z,28.00
2018-10-21T02:38:48.709Z,28.00
2018-10-21T02:42:02.188Z,28.00
2018-10-21T02:44:56.981Z,28.00
2018-10-21T02:47:51.578Z,28.00
2018-10-21T02:50:46.866Z,28.00
2018-10-21T02:53:41.702Z,28.00
2018-10-21T02:56:36.951Z,28.10
2018-10-21T02:59:31.421Z,28.10
2018-10-21T03:02:27.077Z,28.10
2018-10-21T03:05:21.357Z,28.10
2018-10-21T03:08:15.372Z,28.10
2018-10-21T03:11:11.046Z,28.10
2018-10-21T03:14:06.250Z,28.20
2018-10-21T03:17:02.959Z,28.20
2018-10-21T03:19:57.565Z,28.30
2018-10-21T03:22:53.202Z,28.30
2018-10-21T03:25:49.517Z,28.30
2018-10-21T03:28:44.540Z,28.40
2018-10-21T03:31:41.185Z,28.40
2018-10-21T03:34:36.839Z,28.50
2018-10-21T03:37:31.123Z,28.50
2018-10-21T03:40:26.702Z,28.60
2018-10-21T03:43:21.126Z,28.60
2018-10-21T03:46:18.428Z,28.60
2018-10-21T03:49:14.092Z,28.70
2018-10-21T03:52:09.870Z,28.70
2018-10-21T03:55:05.766Z,28.70
2018-10-21T03:58:01.691Z,28.80
2018-10-21T04:00:57.895Z,28.80
2018-10-21T04:03:53.177Z,28.80
2018-10-21T04:06:48.718Z,28.80
2018-10-21T04:09:44.813Z,28.80
2018-10-21T04:12:40.913Z,28.80
2018-10-21T04:15:36.845Z,28.90
2018-10-21T04:18:31.973Z,28.90
2018-10-21T04:21:28.047Z,28.90
2018-10-21T04:24:24.103Z,28.90
2018-10-21T04:27:20.762Z,29.00
2018-10-21T04:30:20.729Z,29.00
2018-10-21T04:33:45.668Z,29.10
2018-10-21T04:36:40.106Z,29.10
2018-10-21T04:40:16.679Z,29.10
2018-10-21T04:43:13.174Z,29.20
2018-10-21T04:46:09.679Z,29.20
2018-10-21T04:49:05.093Z,29.20
2018-10-21T04:52:05.101Z,29.20
2018-10-21T04:55:10.693Z,29.30
2018-10-21T04:58:05.557Z,29.30
2018-10-21T05:01:02.648Z,29.30
2018-10-21T05:04:15.020Z,29.30
2018-10-21T05:07:09.927Z,29.40
2018-10-21T05:10:07.364Z,29.40
2018-10-21T05:13:01.048Z,29.40
2018-10-21T05:15:55.169Z,29.50
2018-10-21T05:18:48.955Z,29.50
2018-10-21T05:21:42.619Z,29.50
2018-10-21T05:24:36.548Z,29.60
2018-10-21T05:27:30.441Z,29.60
2018-10-21T05:30:28.130Z,29.70
2018-10-21T05:33:22.679Z,29.70
2018-10-21T05:36:17.632Z,29.80
2018-10-21T05:39:14.759Z,29.80
2018-10-21T05:42:08.352Z,29.80
2018-10-21T05:45:02.097Z,29.90
2018-10-21T05:47:56.721Z,29.90
2018-10-21T05:50:51.840Z,29.90
2018-10-21T05:53:46.223Z,30.00
2018-10-21T05:56:41.706Z,30.00
2018-10-21T05:59:39.907Z,30.10
2018-10-21T06:02:31.433Z,30.10
2018-10-21T06:05:52.866Z,30.20
2018-10-21T06:08:47.003Z,30.20
2018-10-21T06:11:45.006Z,30.20
2018-10-21T06:14:38.869Z,30.20
2018-10-21T06:17:33.926Z,30.30
2018-10-21T06:20:44.305Z,30.30
2018-10-21T06:23:40.104Z,30.30
2018-10-21T06:26:35.213Z,30.40
2018-10-21T06:29:33.004Z,30.40
2018-10-21T06:32:32.901Z,30.40
2018-10-21T06:35:29.397Z,30.50
2018-10-21T06:38:24.645Z,30.50
2018-10-21T06:41:19.814Z,30.50
2018-10-21T06:44:18.138Z,30.50
2018-10-21T06:47:12.509Z,30.60
2018-10-21T06:50:08.254Z,30.60
2018-10-21T06:53:03.092Z,30.70
2018-10-21T06:55:58.038Z,30.70
2018-10-21T06:58:52.625Z,30.80
2018-10-21T07:01:46.145Z,30.80
2018-10-21T07:04:39.791Z,30.90
2018-10-21T07:07:32.971Z,30.90
2018-10-21T07:10:26.539Z,31.00
2018-10-21T07:13:20.375Z,31.00
2018-10-21T07:16:14.462Z,31.10
2018-10-21T07:19:07.554Z,31.10
2018-10-21T07:22:00.817Z,31.10
2018-10-21T07:24:54.948Z,31.20
2018-10-21T07:27:48.695Z,31.20
2018-10-21T07:30:42.304Z,31.20
2018-10-21T07:33:36.116Z,31.20
2018-10-21T07:36:30.168Z,31.20
2018-10-21T07:39:23.942Z,31.20
2018-10-21T07:42:17.350Z,31.20
2018-10-21T07:45:11.146Z,31.30
2018-10-21T07:48:05.091Z,31.30
2018-10-21T07:50:58.737Z,31.30
2018-10-21T07:53:52.318Z,31.30
2018-10-21T07:56:46.168Z,31.30
2018-10-21T07:59:39.905Z,31.30
2018-10-21T08:02:33.439Z,31.30
2018-10-21T08:06:01.555Z,31.30
2018-10-21T08:08:55.083Z,31.40
2018-10-21T08:11:48.375Z,31.30
2018-10-21T08:14:41.748Z,31.40
2018-10-21T08:17:35.182Z,31.40
2018-10-21T08:20:28.212Z,31.40
2018-10-21T08:23:22.010Z,31.50
2018-10-21T08:26:15.770Z,31.50
2018-10-21T08:29:08.946Z,31.50
2018-10-21T08:32:02.601Z,31.50
2018-10-21T08:34:56.209Z,31.60
2018-10-21T08:37:49.640Z,31.60
2018-10-21T08:40:43.433Z,31.60
2018-10-21T08:43:37.404Z,31.60
2018-10-21T08:46:31.094Z,31.60
2018-10-21T08:49:24.573Z,31.60
2018-10-21T08:52:18.041Z,31.60
2018-10-21T08:55:12.426Z,31.70
2018-10-21T08:58:05.979Z,31.70
2018-10-21T09:00:59.566Z,31.70
2018-10-21T09:03:53.102Z,31.70
2018-10-21T09:06:46.876Z,31.70
2018-10-21T09:09:40.866Z,31.70
2018-10-21T09:12:34.259Z,31.70
2018-10-21T09:15:27.702Z,31.70
2018-10-21T09:18:21.366Z,31.70
2018-10-21T09:21:15.045Z,31.70
2018-10-21T09:24:08.703Z,31.70
2018-10-21T09:27:02.519Z,31.70
2018-10-21T09:29:57.127Z,31.70
2018-10-21T09:32:51.059Z,31.70
2018-10-21T09:35:46.049Z,31.80
2018-10-21T09:38:40.218Z,31.80
2018-10-21T09:41:34.629Z,31.80
2018-10-21T09:44:28.295Z,31.80
2018-10-21T09:47:23.205Z,31.90
2018-10-21T09:50:19.115Z,31.90
2018-10-21T09:53:13.332Z,31.90
2018-10-21T09:56:07.813Z,32.00
2018-10-21T09:59:05.469Z,32.00
2018-10-21T10:02:16.342Z,32.00
2018-10-21T10:05:10.430Z,32.00
2018-10-21T10:08:05.045Z,32.00
2018-10-21T10:10:59.894Z,32.00
2018-10-21T10:13:59.074Z,32.00
2018-10-21T10:16:54.520Z,31.90
2018-10-21T10:19:49.465Z,31.90
2018-10-21T10:22:43.995Z,31.90
2018-10-21T10:25:39.053Z,31.80
2018-10-21T10:28:36.820Z,31.80
2018-10-21T10:31:28.271Z,31.70
2018-10-21T10:34:22.973Z,31.70
2018-10-21T10:37:17.672Z,31.60
2018-10-21T10:40:13.057Z,31.60
2018-10-21T10:43:08.125Z,31.60
2018-10-21T10:46:03.018Z,31.50
2018-10-21T10:48:59.689Z,31.50
2018-10-21T10:51:54.992Z,31.50
2018-10-21T10:54:50.209Z,31.40
2018-10-21T10:57:44.929Z,31.40
2018-10-21T11:00:39.968Z,31.40
2018-10-21T11:03:35.981Z,31.40
2018-10-21T11:06:31.119Z,31.40
2018-10-21T11:09:26.422Z,31.30
2018-10-21T11:12:21.387Z,31.30
2018-10-21T11:15:16.604Z,31.30
2018-10-21T11:18:11.937Z,31.30
2018-10-21T11:21:07.841Z,31.30
2018-10-21T11:24:06.183Z,31.20
2018-10-21T11:26:56.361Z,31.20
2018-10-21T11:29:52.105Z,31.20
2018-10-21T11:32:51.026Z,31.10
2018-10-21T11:35:45.616Z,31.10
2018-10-21T11:38:41.082Z,31.10
2018-10-21T11:41:35.856Z,31.10
2018-10-21T11:44:30.309Z,31.10
2018-10-21T11:47:25.081Z,31.10
2018-10-21T11:50:19.796Z,31.10
2018-10-21T11:53:14.289Z,31.00
2018-10-21T11:56:09.309Z,31.00
2018-10-21T11:59:03.891Z,31.00
2018-10-21T12:01:58.581Z,31.00
2018-10-21T12:04:52.756Z,31.00
2018-10-21T12:07:48.375Z,30.90
2018-10-21T12:10:43.384Z,31.00
2018-10-21T12:13:38.418Z,31.00
2018-10-21T12:16:33.934Z,30.90
2018-10-21T12:19:28.981Z,30.90
2018-10-21T12:22:24.721Z,30.90
2018-10-21T12:25:19.471Z,30.80
2018-10-21T12:28:17.708Z,30.80
2018-10-21T12:31:11.940Z,30.80
2018-10-21T12:34:06.926Z,30.80
2018-10-21T12:37:01.082Z,30.80
2018-10-21T12:39:56.549Z,30.70
2018-10-21T12:42:50.078Z,30.80
2018-10-21T12:45:44.265Z,30.70
2018-10-21T12:48:40.533Z,30.80
2018-10-21T12:51:35.201Z,30.70
2018-10-21T12:54:30.479Z,30.70
2018-10-21T12:57:25.095Z,30.70
2018-10-21T13:00:19.084Z,30.70
2018-10-21T13:03:14.497Z,30.70
2018-10-21T13:06:08.988Z,30.70
2018-10-21T13:09:03.091Z,30.60
2018-10-21T13:11:58.626Z,30.60
2018-10-21T13:14:53.435Z,30.60
2018-10-21T13:17:49.144Z,30.60
2018-10-21T13:20:44.346Z,30.60
2018-10-21T13:23:39.963Z,30.60
2018-10-21T13:26:34.477Z,30.60
2018-10-21T13:29:29.050Z,30.60
2018-10-21T13:32:24.445Z,30.60
2018-10-21T13:35:18.612Z,30.50
2018-10-21T13:38:13.529Z,30.50
2018-10-21T13:41:08.632Z,30.50
2018-10-21T13:44:03.611Z,30.50
2018-10-21T13:46:58.664Z,30.50
2018-10-21T13:49:53.822Z,30.50
2018-10-21T13:52:49.262Z,30.50
2018-10-21T13:55:44.442Z,30.50
2018-10-21T13:58:39.621Z,30.50
2018-10-21T14:01:34.410Z,30.50
2018-10-21T14:04:29.552Z,30.50
2018-10-21T14:07:24.423Z,30.50
2018-10-21T14:10:19.296Z,30.50
2018-10-21T14:13:14.611Z,30.40
2018-10-21T14:16:09.438Z,30.40
2018-10-21T14:19:03.123Z,30.40
2018-10-21T14:21:56.513Z,30.40
2018-10-21T14:24:50.592Z,30.40
2018-10-21T14:27:45.068Z,30.40
2018-10-21T14:30:39.975Z,30.40
2018-10-21T14:33:35.027Z,30.40
2018-10-21T14:36:29.628Z,30.40
2018-10-21T14:39:24.394Z,30.40
2018-10-21T14:42:19.443Z,30.40
2018-10-21T14:45:16.090Z,30.40
2018-10-21T14:48:11.371Z,30.40
2018-10-21T14:51:06.373Z,30.30
2018-10-21T14:54:01.112Z,30.30
2018-10-21T14:56:56.378Z,30.30
2018-10-21T14:59:52.221Z,30.30
2018-10-21T15:02:46.376Z,30.30
2018-10-21T15:05:40.169Z,30.30
2018-10-21T15:08:34.409Z,30.20
2018-10-21T15:11:28.181Z,30.20
2018-10-21T15:14:22.602Z,30.20
2018-10-21T15:17:17.336Z,30.10
2018-10-21T15:20:12.866Z,30.10
2018-10-21T15:23:07.070Z,30.10
2018-10-21T15:26:05.346Z,30.10
2018-10-21T15:29:04.735Z,30.00
2018-10-21T15:31:54.532Z,30.00
2018-10-21T15:34:48.433Z,30.00
2018-10-21T15:37:42.152Z,30.00
2018-10-21T15:40:35.724Z,29.90
2018-10-21T15:43:29.363Z,29.90
2018-10-21T15:46:22.942Z,29.90
2018-10-21T15:49:17.643Z,29.90
2018-10-21T15:52:12.130Z,29.90
2018-10-21T15:55:06.561Z,29.90
2018-10-21T15:58:01.043Z,29.80
2018-10-21T16:00:55.309Z,29.80
2018-10-21T16:03:49.244Z,29.80
2018-10-21T16:06:47.155Z,29.80
2018-10-21T16:09:38.778Z,29.80
2018-10-21T16:12:33.421Z,29.70
2018-10-21T16:15:29.661Z,29.70
2018-10-21T16:18:23.083Z,29.70
2018-10-21T16:21:16.482Z,29.70
2018-10-21T16:24:09.549Z,29.70
2018-10-21T16:27:03.039Z,29.70
2018-10-21T16:29:56.322Z,29.60
2018-10-21T16:32:49.959Z,29.60
2018-10-21T16:35:43.348Z,29.60
2018-10-21T16:38:46.050Z,29.60
2018-10-21T16:41:42.110Z,29.60
2018-10-21T16:44:36.887Z,29.60
2018-10-21T16:47:31.045Z,29.60
2018-10-21T16:50:24.125Z,29.50
2018-10-21T16:53:26.547Z,29.50
2018-10-21T16:56:19.861Z,29.50
2018-10-21T16:59:13.400Z,29.50
2018-10-21T17:02:07.095Z,29.50
2018-10-21T17:05:01.166Z,29.50
2018-10-21T17:07:54.744Z,29.40
2018-10-21T17:10:48.432Z,29.50
2018-10-21T17:13:42.150Z,29.40
2018-10-21T17:16:35.680Z,29.40
2018-10-21T17:19:29.190Z,29.40
2018-10-21T17:22:22.425Z,29.40
2018-10-21T17:25:15.898Z,29.40
2018-10-21T17:28:08.959Z,29.40
2018-10-21T17:31:02.151Z,29.40
2018-10-21T17:33:55.680Z,29.40
2018-10-21T17:36:49.348Z,29.40
2018-10-21T17:39:47.174Z,29.40
2018-10-21T17:42:44.400Z,29.40
2018-10-21T17:45:37.724Z,29.40
2018-10-21T17:48:31.204Z,29.40
2018-10-21T17:51:24.486Z,29.50
2018-10-21T17:54:17.855Z,29.50
2018-10-21T17:57:10.987Z,29.40
2018-10-21T18:00:04.229Z,29.40
2018-10-21T18:02:57.574Z,29.40
2018-10-21T18:05:51.144Z,29.40
2018-10-21T18:08:46.767Z,29.40
2018-10-21T18:11:40.429Z,29.40
2018-10-21T18:14:33.850Z,29.40
2018-10-21T18:17:27.214Z,29.40
2018-10-21T18:20:20.939Z,29.30
2018-10-21T18:23:17.165Z,29.30
2018-10-21T18:26:11.079Z,29.30
2018-10-21T18:29:04.379Z,29.20
2018-10-21T18:31:58.440Z,29.20
2018-10-21T18:34:52.166Z,29.20
2018-10-21T18:37:45.915Z,29.10
2018-10-21T18:40:40.928Z,29.10
2018-10-21T18:43:35.187Z,29.10
2018-10-21T18:46:29.773Z,29.10
2018-10-21T18:49:23.267Z,29.10
2018-10-21T18:52:16.780Z,29.00
2018-10-21T18:55:10.619Z,29.00
2018-10-21T18:58:03.628Z,28.90
2018-10-21T19:00:56.525Z,28.90
2018-10-21T19:03:49.376Z,28.90
2018-10-21T19:06:42.663Z,28.90
2018-10-21T19:09:35.883Z,28.90
2018-10-21T19:12:29.289Z,28.80
2018-10-21T19:15:22.420Z,28.80
2018-10-21T19:18:15.628Z,28.80
2018-10-21T19:21:08.649Z,28.80
2018-10-21T19:24:01.911Z,28.70
2018-10-21T19:26:54.844Z,28.70
2018-10-21T19:29:48.447Z,28.70
2018-10-21T19:32:41.904Z,28.70
2018-10-21T19:35:35.151Z,28.60
2018-10-21T19:38:28.057Z,28.60
2018-10-21T19:41:21.287Z,28.60
2018-10-21T19:44:14.679Z,28.60
2018-10-21T19:47:08.930Z,28.60
2018-10-21T19:50:02.013Z,28.50
2018-10-21T19:52:55.026Z,28.60
2018-10-21T19:55:48.510Z,28.50
2018-10-21T19:58:41.728Z,28.50
2018-10-21T20:01:34.831Z,28.50
2018-10-21T20:04:27.980Z,28.50
2018-10-21T20:07:24.217Z,28.50
2018-10-21T20:10:18.791Z,28.50
2018-10-21T20:13:11.862Z,28.50
2018-10-21T20:16:05.581Z,28.40
2018-10-21T20:18:59.022Z,28.40
2018-10-21T20:21:53.197Z,28.40
2018-10-21T20:24:46.569Z,28.40
2018-10-21T20:27:40.405Z,28.40
2018-10-21T20:30:33.962Z,28.40
2018-10-21T20:33:27.656Z,28.40
2018-10-21T20:36:20.847Z,28.30
2018-10-21T20:39:14.286Z,28.30
2018-10-21T20:42:07.302Z,28.30
2018-10-21T20:45:00.574Z,28.30
2018-10-21T20:47:53.818Z,28.30
2018-10-21T20:50:46.669Z,28.30
2018-10-21T20:53:39.882Z,28.20
2018-10-21T20:56:33.357Z,28.20
2018-10-21T20:59:27.694Z,28.20
2018-10-21T21:02:21.213Z,28.20
2018-10-21T21:05:14.470Z,28.20
2018-10-21T21:08:07.502Z,28.20
2018-10-21T21:11:00.483Z,28.10
2018-10-21T21:13:53.646Z,28.10
2018-10-21T21:16:46.909Z,28.10
2018-10-21T21:19:40.285Z,28.10
2018-10-21T21:22:33.640Z,28.10
2018-10-21T21:25:27.068Z,28.10
2018-10-21T21:28:20.115Z,28.00
2018-10-21T21:31:13.450Z,28.00
2018-10-21T21:34:06.856Z,28.00
2018-10-21T21:37:00.152Z,28.00
2018-10-21T21:39:53.442Z,27.90
2018-10-21T21:42:46.668Z,27.90
2018-10-21T21:45:39.597Z,27.90
2018-10-21T21:48:33.701Z,27.90
2018-10-21T21:51:26.855Z,27.90
2018-10-21T21:54:20.061Z,27.80
2018-10-21T21:57:13.612Z,27.80
2018-10-21T22:00:06.810Z,27.80
2018-10-21T22:03:00.215Z,27.80
2018-10-21T22:05:53.776Z,27.80
2018-10-21T22:08:47.457Z,27.80
2018-10-21T22:11:40.725Z,27.80
2018-10-21T22:14:34.211Z,27.80
2018-10-21T22:17:27.073Z,27.80
2018-10-21T22:20:19.924Z,27.70
2018-10-21T22:23:13.262Z,27.70
2018-10-21T22:26:06.720Z,27.70
2018-10-21T22:28:59.793Z,27.70
2018-10-21T22:31:53.111Z,27.70
2018-10-21T22:34:46.350Z,27.70
2018-10-21T22:37:39.792Z,27.70
2018-10-21T22:40:35.601Z,27.70
2018-10-21T22:43:29.081Z,27.70
2018-10-21T22:46:22.852Z,27.60
2018-10-21T22:49:16.397Z,27.60
2018-10-21T22:52:12.820Z,27.60
2018-10-21T22:55:02.950Z,27.60
2018-10-21T22:57:56.827Z,27.60
2018-10-21T23:00:50.291Z,27.60
2018-10-21T23:03:43.560Z,27.50
2018-10-21T23:06:37.126Z,27.50
2018-10-21T23:09:30.396Z,27.50
2018-10-21T23:12:23.364Z,27.50
2018-10-21T23:15:16.285Z,27.50
2018-10-21T23:18:09.558Z,27.50
2018-10-21T23:21:02.695Z,27.50
2018-10-21T23:23:59.306Z,27.50
2018-10-21T23:26:49.306Z,27.40
2018-10-21T23:29:43.195Z,27.40
2018-10-21T23:32:36.315Z,27.40
2018-10-21T23:35:29.652Z,27.40
2018-10-21T23:38:22.900Z,27.40
2018-10-21T23:41:15.741Z,27.40
2018-10-21T23:44:09.800Z,27.40
2018-10-21T23:47:03.038Z,27.40
2018-10-21T23:49:57.681Z,27.40
2018-10-21T23:52:51.332Z,27.40
2018-10-21T23:55:44.647Z,27.40
2018-10-21T23:58:37.924Z,27.40
